sensor_id;sensor_type;location;lat;lon;timestamp;pressure;altitude;pressure_sealevel;temperature
25985;BMP280;66753;53.848;10.658;2023-06-05T00:01:42;102289.97;;;12.33
25985;BMP280;66753;53.848;10.658;2023-06-05T00:16:45;102292.84;;;12.15
25985;BMP280;66753;53.848;10.658;2023-06-05T00:31:47;102292.28;;;11.96
25985;BMP280;66753;53.848;10.658;2023-06-05T00:46:50;102293.13;;;11.83
25985;BMP280;66753;53.848;10.658;2023-06-05T01:01:53;102297.84;;;11.64
25985;BMP280;66753;53.848;10.658;2023-06-05T01:16:55;102292.34;;;11.47
25985;BMP280;66753;53.848;10.658;2023-06-05T01:32:06;102275.03;;;11.27
25985;BMP280;66753;53.848;10.658;2023-06-05T01:47:16;102265.94;;;11.06
25985;BMP280;66753;53.848;10.658;2023-06-05T02:02:17;102276.09;;;10.91
25985;BMP280;66753;53.848;10.658;2023-06-05T02:17:19;102262.66;;;10.74
25985;BMP280;66753;53.848;10.658;2023-06-05T02:32:21;102249.69;;;10.59
25985;BMP280;66753;53.848;10.658;2023-06-05T02:47:26;102235.03;;;10.48
25985;BMP280;66753;53.848;10.658;2023-06-05T03:02:27;102231.91;;;10.46
25985;BMP280;66753;53.848;10.658;2023-06-05T03:17:29;102234.75;;;10.49
25985;BMP280;66753;53.848;10.658;2023-06-05T03:32:30;102241.25;;;10.70
25985;BMP280;66753;53.848;10.658;2023-06-05T03:47:32;102255.75;;;11.00
25985;BMP280;66753;53.848;10.658;2023-06-05T04:02:34;102278.56;;;11.36
25985;BMP280;66753;53.848;10.658;2023-06-05T04:17:37;102301.94;;;11.70
25985;BMP280;66753;53.848;10.658;2023-06-05T04:32:40;102317.03;;;12.05
25985;BMP280;66753;53.848;10.658;2023-06-05T04:47:42;102333.34;;;12.42
25985;BMP280;66753;53.848;10.658;2023-06-05T05:02:44;102354.00;;;12.93
25985;BMP280;66753;53.848;10.658;2023-06-05T05:17:45;102364.13;;;13.72
25985;BMP280;66753;53.848;10.658;2023-06-05T05:32:46;102399.06;;;14.59
25985;BMP280;66753;53.848;10.658;2023-06-05T05:47:48;102407.16;;;15.50
25985;BMP280;66753;53.848;10.658;2023-06-05T06:02:49;102423.91;;;16.48
25985;BMP280;66753;53.848;10.658;2023-06-05T06:17:52;102427.34;;;17.48
25985;BMP280;66753;53.848;10.658;2023-06-05T06:32:54;102436.47;;;18.17
25985;BMP280;66753;53.848;10.658;2023-06-05T06:47:58;102426.84;;;18.63
25985;BMP280;66753;53.848;10.658;2023-06-05T07:02:59;102418.78;;;19.16
25985;BMP280;66753;53.848;10.658;2023-06-05T07:18:00;102413.44;;;20.02
25985;BMP280;66753;53.848;10.658;2023-06-05T07:33:02;102417.75;;;20.88
25985;BMP280;66753;53.848;10.658;2023-06-05T07:48:04;102410.00;;;21.49
25985;BMP280;66753;53.848;10.658;2023-06-05T08:03:05;102402.09;;;22.31
25985;BMP280;66753;53.848;10.658;2023-06-05T08:18:07;102403.63;;;23.14
25985;BMP280;66753;53.848;10.658;2023-06-05T08:33:09;102415.16;;;24.16
25985;BMP280;66753;53.848;10.658;2023-06-05T08:48:13;102388.16;;;24.81
25985;BMP280;66753;53.848;10.658;2023-06-05T09:03:15;102394.16;;;25.56
25985;BMP280;66753;53.848;10.658;2023-06-05T09:18:18;102382.13;;;26.58
25985;BMP280;66753;53.848;10.658;2023-06-05T09:33:20;102385.25;;;26.26
25985;BMP280;66753;53.848;10.658;2023-06-05T09:48:21;102382.63;;;27.25
25985;BMP280;66753;53.848;10.658;2023-06-05T10:03:23;102385.25;;;28.10
25985;BMP280;66753;53.848;10.658;2023-06-05T10:18:24;102361.66;;;28.19
25985;BMP280;66753;53.848;10.658;2023-06-05T10:49:28;102348.00;;;28.70
25985;BMP280;66753;53.848;10.658;2023-06-05T11:19:43;102313.09;;;28.62
25985;BMP280;66753;53.848;10.658;2023-06-05T11:34:46;102306.22;;;29.02
25985;BMP280;66753;53.848;10.658;2023-06-05T11:49:47;102301.59;;;29.93
25985;BMP280;66753;53.848;10.658;2023-06-05T12:04:49;102301.88;;;30.79
25985;BMP280;66753;53.848;10.658;2023-06-05T12:19:54;102268.88;;;30.14
25985;BMP280;66753;53.848;10.658;2023-06-05T12:34:56;102247.66;;;28.27
25985;BMP280;66753;53.848;10.658;2023-06-05T12:49:58;102254.88;;;29.09
25985;BMP280;66753;53.848;10.658;2023-06-05T13:04:59;102248.75;;;29.46
25985;BMP280;66753;53.848;10.658;2023-06-05T13:20:01;102236.50;;;29.76
25985;BMP280;66753;53.848;10.658;2023-06-05T13:35:09;102246.44;;;29.82
25985;BMP280;66753;53.848;10.658;2023-06-05T13:50:10;102221.75;;;28.79
25985;BMP280;66753;53.848;10.658;2023-06-05T14:05:11;102218.53;;;29.99
25985;BMP280;66753;53.848;10.658;2023-06-05T14:20:13;102226.03;;;30.88
25985;BMP280;66753;53.848;10.658;2023-06-05T14:35:15;102197.50;;;30.43
25985;BMP280;66753;53.848;10.658;2023-06-05T14:50:17;102175.06;;;28.89
25985;BMP280;66753;53.848;10.658;2023-06-05T15:05:20;102171.06;;;29.19
25985;BMP280;66753;53.848;10.658;2023-06-05T15:20:21;102173.16;;;29.77
25985;BMP280;66753;53.848;10.658;2023-06-05T15:35:24;102138.50;;;28.27
25985;BMP280;66753;53.848;10.658;2023-06-05T15:50:27;102123.22;;;28.17
25985;BMP280;66753;53.848;10.658;2023-06-05T16:05:28;102134.63;;;28.28
25985;BMP280;66753;53.848;10.658;2023-06-05T16:20:30;102139.25;;;27.83
25985;BMP280;66753;53.848;10.658;2023-06-05T16:35:31;102111.63;;;27.65
25985;BMP280;66753;53.848;10.658;2023-06-05T16:50:32;102097.28;;;27.29
25985;BMP280;66753;53.848;10.658;2023-06-05T17:05:34;102106.41;;;27.38
25985;BMP280;66753;53.848;10.658;2023-06-05T17:20:35;102122.47;;;27.84
25985;BMP280;66753;53.848;10.658;2023-06-05T17:35:36;102127.34;;;28.65
25985;BMP280;66753;53.848;10.658;2023-06-05T17:50:37;102141.97;;;29.87
25985;BMP280;66753;53.848;10.658;2023-06-05T18:05:39;102151.25;;;30.88
25985;BMP280;66753;53.848;10.658;2023-06-05T18:20:44;102135.97;;;30.99
25985;BMP280;66753;53.848;10.658;2023-06-05T18:35:45;102130.47;;;29.92
25985;BMP280;66753;53.848;10.658;2023-06-05T18:50:46;102103.53;;;27.61
25985;BMP280;66753;53.848;10.658;2023-06-05T19:05:48;102114.91;;;25.97
25985;BMP280;66753;53.848;10.658;2023-06-05T19:20:49;102082.69;;;23.95
25985;BMP280;66753;53.848;10.658;2023-06-05T19:35:52;102075.44;;;22.75
25985;BMP280;66753;53.848;10.658;2023-06-05T19:50:54;102082.31;;;21.78
25985;BMP280;66753;53.848;10.658;2023-06-05T20:05:55;102087.38;;;21.05
25985;BMP280;66753;53.848;10.658;2023-06-05T20:20:58;102077.63;;;20.39
25985;BMP280;66753;53.848;10.658;2023-06-05T20:35:59;102077.72;;;19.77
25985;BMP280;66753;53.848;10.658;2023-06-05T20:51:05;102073.53;;;19.24
25985;BMP280;66753;53.848;10.658;2023-06-05T21:06:08;102074.19;;;18.66
25985;BMP280;66753;53.848;10.658;2023-06-05T21:21:09;102078.06;;;18.08
25985;BMP280;66753;53.848;10.658;2023-06-05T21:36:10;102078.88;;;17.55
25985;BMP280;66753;53.848;10.658;2023-06-05T21:51:12;102076.88;;;17.02
25985;BMP280;66753;53.848;10.658;2023-06-05T22:06:13;102068.38;;;16.53
25985;BMP280;66753;53.848;10.658;2023-06-05T22:21:18;102054.19;;;16.10
25985;BMP280;66753;53.848;10.658;2023-06-05T22:36:21;102061.75;;;15.68
25985;BMP280;66753;53.848;10.658;2023-06-05T22:51:27;102059.41;;;15.31
25985;BMP280;66753;53.848;10.658;2023-06-05T23:06:29;102048.72;;;14.95
25985;BMP280;66753;53.848;10.658;2023-06-05T23:21:35;102057.09;;;14.61
25985;BMP280;66753;53.848;10.658;2023-06-05T23:36:37;102060.97;;;14.31
25985;BMP280;66753;53.848;10.658;2023-06-05T23:51:42;102059.28;;;14.06
